WBGR

Miri Airport

Miri, Malaysia
TAF WBGR 212300Z 2200/2300 04005KT 9999 SCT014
Issued Valid From Valid To
Jan-21 @ 23:00 UTC
(an hour ago)
Jan-22 @ 00:00 UTC
(11 minutes ago)
Jan-23 @ 00:00 UTC
(in 24 hours)
Jan-22 @ 00:00 to Jan-23 @ 00:00
TAF WBGR 212300Z 2200/2300 04005KT 9999 SCT014
Wind Visibility Clouds
40° at 5 knots 10,000+ meters
  • Scattered at 1,400' AGL
TAF WBGR 212300Z 2200/2300 04005KT 9999 SCT014
Issued Jan-21 @ 23:00 UTC
(an hour ago)
Valid From Jan-22 @ 00:00 UTC
(11 minutes ago)
Valid To Jan-23 @ 00:00 UTC
(in 24 hours)
Jan-22 @ 00:00 - Jan-23 @ 00:00
Wind Visibility
40° at 5 knots 10,000+ meters
Clouds
  • Scattered at 1,400' AGL